Time,TemperatureF,DewpointF,PressureIn,WindDirection,WindDirectionDegrees,WindSpeedMPH,WindSpeedGustMPH,Humidity,HourlyPrecipIn,Conditions,Clouds,dailyrainin,SoftwareType,DateUTC
2013-01-21 00:04:00,45.6,40.0,30.13,SW,230,1.0,2.0,82,0.00,,,0.00,weatherlink.com 1.10,2013-01-21 06:04:00,
2013-01-21 00:19:00,45.1,40.0,30.13,SW,230,0.0,0.0,82,0.00,,,0.00,weatherlink.com 1.10,2013-01-21 06:19:00,
2013-01-21 00:34:00,44.2,40.0,30.13,SW,230,1.0,3.0,84,0.00,,,0.00,weatherlink.com 1.10,2013-01-21 06:34:00,
2013-01-21 00:50:00,44.1,39.0,30.13,West,266,2.0,4.0,82,0.00,,,0.00,weatherlink.com 1.10,2013-01-21 06:50:00,
2013-01-21 01:05:00,44.3,39.0,30.13,West,266,2.0,3.0,80,0.00,,,0.00,weatherlink.com 1.10,2013-01-21 07:05:00,
2013-01-21 01:20:00,44.4,38.0,30.13,NW,310,0.0,4.0,79,0.00,,,0.00,weatherlink.com 1.10,2013-01-21 07:20:00,
2013-01-21 01:35:00,43.2,38.0,30.14,NW,310,2.0,3.0,81,0.00,,,0.00,weatherlink.com 1.10,2013-01-21 07:35:00,
2013-01-21 01:50:00,42.5,37.0,30.14,NW,310,3.0,3.0,82,0.00,,,0.00,weatherlink.com 1.10,2013-01-21 07:50:00,
2013-01-21 02:05:00,43.2,38.0,30.14,NW,310,1.0,4.0,82,0.00,,,0.00,weatherlink.com 1.10,2013-01-21 08:05:00,
2013-01-21 02:20:00,42.4,37.0,30.14,NW,310,1.0,3.0,82,0.00,,,0.00,weatherlink.com 1.10,2013-01-21 08:20:00,
2013-01-21 02:35:00,41.8,38.0,30.14,NW,310,2.0,4.0,85,0.00,,,0.00,weatherlink.com 1.10,2013-01-21 08:35:00,
2013-01-21 02:50:00,41.1,37.0,30.14,WNW,290,3.0,3.0,85,0.00,,,0.00,weatherlink.com 1.10,2013-01-21 08:50:00,
2013-01-21 03:05:00,40.9,37.0,30.14,South,184,2.0,7.0,87,0.00,,,0.00,weatherlink.com 1.10,2013-01-21 09:05:00,
2013-01-21 03:20:00,41.1,37.0,30.14,South,184,1.0,3.0,86,0.00,,,0.00,weatherlink.com 1.10,2013-01-21 09:20:00,
2013-01-21 03:35:00,41.1,37.0,30.15,South,184,0.0,2.0,86,0.00,,,0.00,weatherlink.com 1.10,2013-01-21 09:35:00,
2013-01-21 03:50:00,41.3,37.0,30.14,South,189,4.0,5.0,86,0.00,,,0.00,weatherlink.com 1.10,2013-01-21 09:50:00,
2013-01-21 04:05:00,40.9,38.0,30.15,South,189,0.0,1.0,88,0.00,,,0.00,weatherlink.com 1.10,2013-01-21 10:05:00,
2013-01-21 04:20:00,40.6,38.0,30.15,South,189,1.0,3.0,90,0.00,,,0.00,weatherlink.com 1.10,2013-01-21 10:20:00,
2013-01-21 04:35:00,41.4,39.0,30.14,South,189,3.0,3.0,91,0.00,,,0.00,weatherlink.com 1.10,2013-01-21 10:35:00,
2013-01-21 04:50:00,42.3,40.0,30.14,SSW,199,2.0,5.0,91,0.00,,,0.00,weatherlink.com 1.10,2013-01-21 10:50:00,
2013-01-21 05:05:00,40.5,38.0,30.15,SSW,199,2.0,4.0,91,0.00,,,0.00,weatherlink.com 1.10,2013-01-21 11:05:00,
2013-01-21 05:20:00,38.7,36.0,30.15,SSW,199,1.0,4.0,89,0.00,,,0.00,weatherlink.com 1.10,2013-01-21 11:20:00,
2013-01-21 05:35:00,38.3,36.0,30.16,NNW,343,5.0,7.0,90,0.00,,,0.00,weatherlink.com 1.10,2013-01-21 11:35:00,
2013-01-21 05:50:00,38.2,36.0,30.16,NW,319,4.0,6.0,90,0.00,,,0.00,weatherlink.com 1.10,2013-01-21 11:50:00,
2013-01-21 06:05:00,39.1,37.0,30.16,NW,310,3.0,6.0,90,0.00,,,0.00,weatherlink.com 1.10,2013-01-21 12:05:00,
2013-01-21 06:20:00,40.0,37.0,30.17,NW,309,1.0,5.0,90,0.00,,,0.00,weatherlink.com 1.10,2013-01-21 12:20:00,
2013-01-21 06:35:00,38.9,36.0,30.17,NW,309,2.0,2.0,89,0.00,,,0.00,weatherlink.com 1.10,2013-01-21 12:35:00,
2013-01-21 06:50:00,38.2,36.0,30.18,NW,309,2.0,3.0,91,0.00,,,0.00,weatherlink.com 1.10,2013-01-21 12:50:00,
2013-01-21 07:05:00,38.4,36.0,30.18,NW,309,1.0,3.0,91,0.00,,,0.00,weatherlink.com 1.10,2013-01-21 13:05:00,
2013-01-21 07:20:00,38.4,36.0,30.19,NW,309,1.0,3.0,92,0.00,,,0.00,weatherlink.com 1.10,2013-01-21 13:20:00,
2013-01-21 07:35:00,37.4,35.0,30.20,NW,309,1.0,2.0,92,0.00,,,0.00,weatherlink.com 1.10,2013-01-21 13:35:00,
2013-01-21 07:50:00,37.1,35.0,30.20,NW,309,0.0,1.0,92,0.00,,,0.00,weatherlink.com 1.10,2013-01-21 13:50:00,
2013-01-21 08:05:00,37.5,35.0,30.21,NW,322,6.0,10.0,91,0.00,,,0.00,weatherlink.com 1.10,2013-01-21 14:05:00,
2013-01-21 08:20:00,41.7,38.0,30.21,NW,305,4.0,10.0,88,0.00,,,0.00,weatherlink.com 1.10,2013-01-21 14:20:00,
2013-01-21 08:35:00,42.8,39.0,30.22,NW,316,3.0,8.0,86,0.00,,,0.00,weatherlink.com 1.10,2013-01-21 14:35:00,
2013-01-21 08:50:00,44.7,40.0,30.23,NNW,344,5.0,6.0,84,0.00,,,0.00,weatherlink.com 1.10,2013-01-21 14:50:00,
2013-01-21 09:06:00,46.6,40.0,30.23,North,351,5.0,8.0,79,0.00,,,0.00,weatherlink.com 1.10,2013-01-21 15:06:00,
2013-01-21 09:21:00,48.8,41.0,30.24,North,359,5.0,10.0,75,0.00,,,0.00,weatherlink.com 1.10,2013-01-21 15:21:00,
2013-01-21 09:36:00,50.6,41.0,30.25,NNE,23,6.0,10.0,71,0.00,,,0.00,weatherlink.com 1.10,2013-01-21 15:36:00,
2013-01-21 09:51:00,52.0,42.0,30.25,NNW,343,7.0,10.0,69,0.00,,,0.00,weatherlink.com 1.10,2013-01-21 15:51:00,
2013-01-21 10:06:00,54.0,43.0,30.25,North,356,4.0,11.0,67,0.00,,,0.00,weatherlink.com 1.10,2013-01-21 16:06:00,
2013-01-21 10:21:00,54.9,44.0,30.26,NNE,23,4.0,10.0,66,0.00,,,0.00,weatherlink.com 1.10,2013-01-21 16:21:00,
2013-01-21 10:36:00,55.3,44.0,30.26,North,355,10.0,10.0,65,0.00,,,0.00,weatherlink.com 1.10,2013-01-21 16:36:00,
2013-01-21 10:51:00,56.3,44.0,30.26,NNE,12,6.0,9.0,63,0.00,,,0.00,weatherlink.com 1.10,2013-01-21 16:51:00,
2013-01-21 11:06:00,56.3,44.0,30.26,ENE,72,8.0,10.0,63,0.00,,,0.00,weatherlink.com 1.10,2013-01-21 17:06:00,
2013-01-21 11:21:00,57.0,43.0,30.26,NE,40,5.0,8.0,60,0.00,,,0.00,weatherlink.com 1.10,2013-01-21 17:21:00,
2013-01-21 11:36:00,57.6,44.0,30.25,NNE,33,4.0,8.0,60,0.00,,,0.00,weatherlink.com 1.10,2013-01-21 17:36:00,
2013-01-21 11:51:00,58.6,44.0,30.25,NE,45,5.0,6.0,59,0.00,,,0.00,weatherlink.com 1.10,2013-01-21 17:51:00,
2013-01-21 12:06:00,59.5,45.0,30.24,NNW,347,1.0,5.0,60,0.00,,,0.00,weatherlink.com 1.10,2013-01-21 18:06:00,
2013-01-21 12:21:00,59.6,44.0,30.24,NNE,23,1.0,6.0,57,0.00,,,0.00,weatherlink.com 1.10,2013-01-21 18:21:00,
2013-01-21 12:36:00,59.9,45.0,30.23,North,355,3.0,6.0,58,0.00,,,0.00,weatherlink.com 1.10,2013-01-21 18:36:00,
2013-01-21 12:51:00,62.6,45.0,30.22,ENE,77,1.0,7.0,53,0.00,,,0.00,weatherlink.com 1.10,2013-01-21 18:51:00,
2013-01-21 13:06:00,62.7,46.0,30.22,NNE,23,3.0,8.0,54,0.00,,,0.00,weatherlink.com 1.10,2013-01-21 19:06:00,
2013-01-21 13:21:00,63.3,45.0,30.21,East,79,5.0,8.0,51,0.00,,,0.00,weatherlink.com 1.10,2013-01-21 19:21:00,
2013-01-21 13:36:00,63.7,45.0,30.21,NNE,19,3.0,8.0,51,0.00,,,0.00,weatherlink.com 1.10,2013-01-21 19:36:00,
2013-01-21 13:51:00,64.3,45.0,30.20,NE,50,3.0,8.0,50,0.00,,,0.00,weatherlink.com 1.10,2013-01-21 19:51:00,
2013-01-21 14:06:00,65.2,46.0,30.20,NE,45,2.0,9.0,51,0.00,,,0.00,weatherlink.com 1.10,2013-01-21 20:06:00,
2013-01-21 14:21:00,65.6,45.0,30.20,NE,43,6.0,9.0,48,0.00,,,0.00,weatherlink.com 1.10,2013-01-21 20:21:00,
2013-01-21 14:36:00,65.9,45.0,30.20,NE,50,6.0,10.0,48,0.00,,,0.00,weatherlink.com 1.10,2013-01-21 20:36:00,
2013-01-21 14:51:00,65.9,45.0,30.19,East,89,4.0,8.0,47,0.00,,,0.00,weatherlink.com 1.10,2013-01-21 20:51:00,
2013-01-21 15:06:00,65.9,46.0,30.19,NNE,33,7.0,7.0,49,0.00,,,0.00,weatherlink.com 1.10,2013-01-21 21:06:00,
2013-01-21 15:21:00,65.8,45.0,30.19,NE,38,5.0,7.0,47,0.00,,,0.00,weatherlink.com 1.10,2013-01-21 21:21:00,
2013-01-21 15:36:00,66.2,45.0,30.19,East,81,2.0,8.0,46,0.00,,,0.00,weatherlink.com 1.10,2013-01-21 21:36:00,
2013-01-21 15:51:00,65.9,44.0,30.19,North,7,2.0,7.0,45,0.00,,,0.00,weatherlink.com 1.10,2013-01-21 21:51:00,
2013-01-21 16:06:00,65.8,44.0,30.19,ENE,75,4.0,9.0,45,0.00,,,0.00,weatherlink.com 1.10,2013-01-21 22:06:00,
2013-01-21 16:21:00,65.2,44.0,30.19,ENE,72,3.0,6.0,46,0.00,,,0.00,weatherlink.com 1.10,2013-01-21 22:21:00,
2013-01-21 16:36:00,64.6,44.0,30.19,ENE,70,3.0,8.0,47,0.00,,,0.00,weatherlink.com 1.10,2013-01-21 22:36:00,
2013-01-21 16:51:00,63.9,43.0,30.19,NE,38,5.0,8.0,47,0.00,,,0.00,weatherlink.com 1.10,2013-01-21 22:51:00,
2013-01-21 17:06:00,63.1,43.0,30.19,ENE,72,8.0,8.0,49,0.00,,,0.00,weatherlink.com 1.10,2013-01-21 23:06:00,
2013-01-21 17:21:00,61.7,43.0,30.19,NE,51,5.0,9.0,50,0.00,,,0.00,weatherlink.com 1.10,2013-01-21 23:21:00,
2013-01-21 17:37:00,60.0,42.0,30.19,East,83,3.0,7.0,52,0.00,,,0.00,weatherlink.com 1.10,2013-01-21 23:37:00,
2013-01-21 17:51:00,58.4,42.0,30.20,ENE,64,3.0,7.0,55,0.00,,,0.00,weatherlink.com 1.10,2013-01-21 23:51:00,
2013-01-21 18:06:00,56.9,42.0,30.20,ENE,61,1.0,4.0,57,0.00,,,0.00,weatherlink.com 1.10,2013-01-22 00:06:00,
2013-01-21 18:21:00,55.1,41.0,30.20,NE,55,3.0,4.0,60,0.00,,,0.00,weatherlink.com 1.10,2013-01-22 00:21:00,
2013-01-21 18:36:00,54.2,41.0,30.21,ENE,63,2.0,5.0,61,0.00,,,0.00,weatherlink.com 1.10,2013-01-22 00:36:00,
2013-01-21 18:51:00,52.9,40.0,30.21,ENE,63,2.0,4.0,63,0.00,,,0.00,weatherlink.com 1.10,2013-01-22 00:51:00,
2013-01-21 19:06:00,52.4,40.0,30.21,ENE,65,3.0,6.0,63,0.00,,,0.00,weatherlink.com 1.10,2013-01-22 01:06:00,
2013-01-21 19:21:00,51.9,40.0,30.21,ENE,74,2.0,8.0,64,0.00,,,0.00,weatherlink.com 1.10,2013-01-22 01:21:00,
2013-01-21 19:36:00,51.0,40.0,30.21,ENE,72,1.0,5.0,65,0.00,,,0.00,weatherlink.com 1.10,2013-01-22 01:36:00,
2013-01-21 19:51:00,50.8,40.0,30.22,ENE,57,4.0,5.0,66,0.00,,,0.00,weatherlink.com 1.10,2013-01-22 01:51:00,
2013-01-21 20:07:00,50.6,39.0,30.22,ENE,68,3.0,6.0,65,0.00,,,0.00,weatherlink.com 1.10,2013-01-22 02:07:00,
2013-01-21 20:22:00,49.7,38.0,30.22,ENE,68,3.0,4.0,65,0.00,,,0.00,weatherlink.com 1.10,2013-01-22 02:22:00,
2013-01-21 20:37:00,48.9,38.0,30.22,ENE,68,2.0,4.0,67,0.00,,,0.00,weatherlink.com 1.10,2013-01-22 02:37:00,
2013-01-21 20:52:00,48.8,38.0,30.23,ENE,68,2.0,3.0,66,0.00,,,0.00,weatherlink.com 1.10,2013-01-22 02:52:00,
2013-01-21 21:06:00,48.1,38.0,30.23,ENE,68,0.0,3.0,68,0.00,,,0.00,weatherlink.com 1.10,2013-01-22 03:06:00,
2013-01-21 21:22:00,47.2,38.0,30.23,ENE,68,0.0,1.0,71,0.00,,,0.00,weatherlink.com 1.10,2013-01-22 03:22:00,
2013-01-21 21:37:00,46.8,37.0,30.23,ENE,68,2.0,3.0,70,0.00,,,0.00,weatherlink.com 1.10,2013-01-22 03:37:00,
2013-01-21 21:53:00,46.7,37.0,30.22,ENE,68,4.0,4.0,70,0.00,,,0.00,weatherlink.com 1.10,2013-01-22 03:53:00,
2013-01-21 22:07:00,46.1,37.0,30.22,ENE,68,0.0,3.0,71,0.00,,,0.00,weatherlink.com 1.10,2013-01-22 04:07:00,
2013-01-21 22:22:00,45.9,37.0,30.23,ENE,68,3.0,3.0,72,0.00,,,0.00,weatherlink.com 1.10,2013-01-22 04:22:00,
2013-01-21 22:37:00,45.0,37.0,30.23,ENE,68,2.0,3.0,74,0.00,,,0.00,weatherlink.com 1.10,2013-01-22 04:37:00,
2013-01-21 22:52:00,44.3,37.0,30.24,ENE,68,2.0,3.0,74,0.00,,,0.00,weatherlink.com 1.10,2013-01-22 04:52:00,
2013-01-21 23:07:00,44.6,37.0,30.23,NE,46,3.0,4.0,75,0.00,,,0.00,weatherlink.com 1.10,2013-01-22 05:07:00,
2013-01-21 23:22:00,44.3,37.0,30.23,NE,46,3.0,4.0,75,0.00,,,0.00,weatherlink.com 1.10,2013-01-22 05:22:00,
2013-01-21 23:37:00,44.5,37.0,30.23,NE,37,0.0,4.0,74,0.00,,,0.00,weatherlink.com 1.10,2013-01-22 05:37:00,
2013-01-21 23:52:00,43.0,36.0,30.23,NE,37,3.0,3.0,77,0.00,,,0.00,weatherlink.com 1.10,2013-01-22 05:52:00,